createdAt,value
2023-04-24T00:00:43.454Z,17.08
2023-04-24T00:05:46.870Z,17.10
2023-04-24T00:10:50.165Z,17.17
2023-04-24T00:15:54.787Z,17.14
2023-04-24T00:20:58.048Z,17.21
2023-04-24T00:26:01.296Z,17.20
2023-04-24T00:31:06.208Z,17.14
2023-04-24T00:36:09.858Z,17.11
2023-04-24T00:41:13.681Z,17.13
2023-04-24T00:46:19.281Z,17.14
2023-04-24T00:51:22.695Z,17.09
2023-04-24T00:56:26.169Z,17.15
2023-04-24T01:01:31.658Z,17.16
2023-04-24T01:06:35.925Z,17.13
2023-04-24T01:11:39.752Z,17.08
2023-04-24T01:16:44.548Z,17.05
2023-04-24T01:21:49.715Z,16.92
2023-04-24T01:26:54.464Z,16.97
2023-04-24T01:31:59.759Z,16.96
2023-04-24T01:37:03.349Z,16.87
2023-04-24T01:42:09.448Z,16.81
2023-04-24T01:47:13.059Z,16.70
2023-04-24T01:52:16.288Z,16.68
2023-04-24T01:57:21.115Z,16.57
2023-04-24T02:02:25.470Z,16.54
2023-04-24T02:07:28.722Z,16.55
2023-04-24T02:12:33.402Z,16.52
2023-04-24T02:17:36.708Z,16.50
2023-04-24T02:22:40.051Z,16.44
2023-04-24T02:27:44.710Z,16.51
2023-04-24T02:32:47.939Z,16.37
2023-04-24T02:37:51.346Z,16.37
2023-04-24T02:42:56.025Z,16.38
2023-04-24T02:47:59.294Z,16.44
2023-04-24T02:53:02.700Z,16.48
2023-04-24T02:58:07.351Z,16.45
2023-04-24T03:03:10.852Z,16.48
2023-04-24T03:08:15.788Z,16.44
2023-04-24T03:13:20.479Z,16.40
2023-04-24T03:18:23.619Z,16.29
2023-04-24T03:23:26.941Z,16.25
2023-04-24T03:28:31.603Z,16.14
2023-04-24T03:33:34.815Z,16.17
2023-04-24T03:38:38.107Z,16.15
2023-04-24T03:43:42.779Z,16.11
2023-04-24T03:48:46.183Z,16.07
2023-04-24T03:53:49.542Z,16.05
2023-04-24T03:58:54.189Z,16.03
2023-04-24T04:03:57.595Z,16.08
2023-04-24T04:09:01.488Z,16.09
2023-04-24T04:14:06.465Z,16.24
2023-04-24T04:19:09.749Z,16.15
2023-04-24T04:24:13.092Z,16.32
2023-04-24T04:29:18.722Z,16.29
2023-04-24T04:34:22.366Z,16.41
2023-04-24T04:39:25.680Z,16.40
2023-04-24T04:44:31.871Z,16.38
2023-04-24T04:49:35.939Z,16.35
2023-04-24T04:54:39.214Z,16.29
2023-04-24T04:59:44.128Z,16.20
2023-04-24T05:04:47.845Z,16.14
2023-04-24T05:09:52.652Z,16.15
2023-04-24T05:14:57.259Z,16.24
2023-04-24T05:20:00.483Z,16.29
2023-04-24T05:25:03.976Z,16.26
2023-04-24T05:30:10.746Z,16.22
2023-04-24T05:35:14.224Z,16.17
2023-04-24T05:40:17.536Z,16.22
2023-04-24T05:45:22.227Z,16.21
2023-04-24T05:50:25.802Z,16.26
2023-04-24T05:55:29.397Z,16.27
2023-04-24T06:00:35.031Z,16.31
2023-04-24T06:05:38.549Z,16.33
2023-04-24T06:10:42.494Z,16.37
2023-04-24T06:15:47.572Z,16.26
2023-04-24T06:20:51.043Z,16.36
2023-04-24T06:26:00.451Z,16.29
2023-04-24T06:31:05.386Z,16.32
2023-04-24T06:36:09.371Z,16.29
2023-04-24T06:41:12.586Z,16.37
2023-04-24T06:46:17.797Z,16.47
2023-04-24T06:51:21.298Z,16.50
2023-04-24T06:56:24.872Z,16.53
2023-04-24T10:45:18.381Z,23.45
2023-04-24T10:50:22.045Z,23.40
2023-04-24T10:55:49.935Z,22.91
2023-04-24T11:01:00.355Z,23.36
2023-04-24T11:06:05.371Z,23.28
2023-04-24T11:11:13.205Z,22.96
2023-04-24T11:16:23.711Z,23.07
2023-04-24T11:21:27.428Z,23.39
2023-04-24T11:26:33.649Z,23.01
2023-04-24T11:31:39.617Z,22.80
2023-04-24T11:36:45.588Z,22.47
2023-04-24T11:41:49.218Z,21.97
2023-04-24T11:46:53.921Z,21.93
2023-04-24T11:51:59.715Z,21.97
2023-04-24T11:57:08.206Z,22.05
2023-04-24T12:02:23.010Z,22.04
2023-04-24T12:07:26.664Z,22.14
2023-04-24T12:12:30.564Z,22.08
2023-04-24T12:17:37.681Z,22.31
2023-04-24T12:22:48.225Z,22.34
2023-04-24T12:27:55.948Z,22.40
2023-04-24T12:33:02.576Z,22.83
2023-04-24T12:38:09.451Z,23.06
2023-04-24T12:43:17.640Z,23.37
2023-04-24T12:48:23.441Z,23.37
2023-04-24T12:53:27.778Z,23.49
2023-04-24T12:58:30.958Z,23.89
2023-04-24T13:03:35.688Z,23.98
2023-04-24T13:08:38.941Z,24.40
2023-04-24T13:13:42.376Z,24.14
2023-04-24T13:18:47.030Z,24.36
2023-04-24T13:23:50.676Z,24.30
2023-04-24T13:28:53.770Z,24.32
2023-04-24T13:33:58.391Z,24.36
2023-04-24T13:39:01.573Z,24.16
2023-04-24T13:44:05.096Z,24.08
2023-04-24T13:49:09.751Z,24.38
2023-04-24T13:54:13.059Z,24.52
2023-04-24T13:59:21.245Z,24.59
2023-04-24T14:04:26.031Z,24.54
2023-04-24T14:09:29.397Z,24.49
2023-04-24T14:14:32.662Z,24.59
2023-04-24T14:19:37.198Z,24.43
2023-04-24T14:24:40.349Z,24.31
2023-04-24T14:29:43.456Z,24.48
2023-04-24T14:34:47.986Z,24.52
2023-04-24T14:40:04.629Z,24.45
2023-04-24T14:45:14.245Z,24.26
2023-04-24T14:50:19.144Z,24.42
2023-04-24T14:55:22.370Z,24.53
2023-04-24T15:00:25.930Z,24.34
2023-04-24T15:05:31.566Z,24.64
2023-04-24T15:10:35.244Z,24.64
2023-04-24T15:15:38.397Z,24.56
2023-04-24T15:20:43.491Z,24.53
2023-04-24T15:25:46.682Z,24.02
2023-04-24T15:30:49.845Z,24.11
2023-04-24T15:35:54.602Z,24.19
2023-04-24T15:40:57.798Z,24.26
2023-04-24T15:46:01.027Z,23.95
2023-04-24T15:51:05.633Z,23.85
2023-04-24T15:56:08.945Z,23.93
2023-04-24T16:01:12.144Z,23.90
2023-04-24T16:06:17.033Z,23.73
2023-04-24T16:11:20.547Z,23.54
2023-04-24T16:16:24.557Z,23.49
2023-04-24T16:21:28.946Z,23.35
2023-04-24T16:26:32.101Z,23.43
2023-04-24T16:31:35.280Z,23.41
2023-04-24T16:36:39.920Z,23.16
2023-04-24T16:41:43.128Z,22.99
2023-04-24T16:46:46.304Z,22.87
2023-04-24T16:51:50.976Z,22.94
2023-04-24T16:56:54.357Z,22.93
2023-04-24T17:01:57.515Z,22.75
2023-04-24T17:07:02.249Z,22.69
2023-04-24T17:12:05.757Z,22.66
2023-04-24T17:17:09.057Z,22.45
2023-04-24T17:22:13.661Z,22.39
2023-04-24T17:27:16.874Z,22.30
2023-04-24T17:32:20.384Z,22.34
2023-04-24T17:37:25.440Z,22.29
2023-04-24T17:42:28.712Z,22.27
2023-04-24T17:47:31.867Z,22.24
2023-04-24T17:52:36.699Z,22.50
2023-04-24T17:57:39.933Z,22.67
2023-04-24T18:02:43.326Z,22.50
2023-04-24T18:07:48.011Z,22.35
2023-04-24T18:12:52.200Z,22.10
2023-04-24T18:17:55.649Z,22.11
2023-04-24T18:23:02.291Z,22.13
2023-04-24T18:28:06.704Z,21.64
2023-04-24T18:33:10.008Z,21.63
2023-04-24T18:38:14.751Z,21.56
2023-04-24T18:43:18.217Z,21.64
2023-04-24T18:48:21.584Z,21.31
2023-04-24T18:53:26.245Z,21.31
2023-04-24T18:58:29.427Z,21.32
2023-04-24T19:03:32.903Z,21.13
2023-04-24T19:08:38.784Z,20.97
2023-04-24T19:13:42.150Z,20.86
2023-04-24T19:18:45.496Z,20.63
2023-04-24T19:23:50.727Z,20.64
2023-04-24T19:28:57.803Z,20.36
2023-04-24T19:34:01.034Z,20.44
2023-04-24T19:39:05.837Z,20.33
2023-04-24T19:44:09.148Z,20.21
2023-04-24T19:49:13.423Z,20.06
2023-04-24T19:54:20.243Z,19.92
2023-04-24T19:59:23.520Z,19.81
2023-04-24T20:04:27.065Z,19.68
2023-04-24T20:09:33.021Z,19.60
2023-04-24T20:14:36.342Z,19.67
2023-04-24T20:19:41.212Z,19.67
2023-04-24T20:24:46.137Z,19.38
2023-04-24T20:29:49.634Z,19.45
2023-04-24T20:34:52.919Z,19.37
2023-04-24T20:39:58.549Z,19.29
2023-04-24T20:45:02.057Z,19.25
2023-04-24T20:50:06.580Z,19.18
2023-04-24T20:55:11.379Z,18.96
2023-04-24T21:00:16.258Z,18.84
2023-04-24T21:17:49.319Z,18.93
2023-04-24T21:23:01.759Z,18.70
2023-04-24T21:28:05.634Z,18.64
2023-04-24T21:33:10.370Z,18.57
2023-04-24T21:38:19.946Z,18.47
2023-04-24T21:43:37.196Z,18.38
2023-04-24T21:48:42.042Z,18.16
2023-04-24T21:53:45.032Z,18.12
2023-04-24T21:58:48.606Z,18.00
2023-04-24T22:03:53.754Z,17.96
2023-04-24T22:08:57.451Z,17.85
2023-04-24T22:14:00.732Z,18.02
2023-04-24T22:19:05.579Z,18.06
2023-04-24T22:24:09.156Z,17.99
2023-04-24T22:29:13.037Z,18.04
2023-04-24T22:34:18.656Z,18.02
2023-04-24T22:39:21.983Z,17.94
2023-04-24T22:44:25.243Z,17.99
2023-04-24T22:49:30.329Z,17.84
2023-04-24T22:54:34.959Z,17.89
2023-04-24T22:59:38.225Z,17.95
2023-04-24T23:04:42.887Z,18.09
2023-04-24T23:09:45.894Z,17.81
2023-04-24T23:14:49.188Z,17.73
2023-04-24T23:19:53.779Z,17.74
2023-04-24T23:24:57.084Z,17.61
2023-04-24T23:30:00.329Z,17.52
2023-04-24T23:35:05.079Z,17.65
2023-04-24T23:40:10.304Z,17.54
2023-04-24T23:45:13.624Z,17.46
2023-04-24T23:50:18.278Z,17.39
2023-04-24T23:55:21.494Z,17.26
